Time;durP1;ratioP1;P1;durP2;ratioP2;P2;SDS_P1;SDS_P2;PMS_P1;PMS_P2;Temp;Humidity;BMP_temperature;BMP_pressure;BME280_temperature;BME280_humidity;BME280_pressure;Samples;Min_cycle;Max_cycle;Signal;HPM_P1;HPM_P2
2024/01/28 00:01:41;;;;;;;63.55;56.00;;;9.60;1.00;;;;;;5064662;28;20266;-63
2024/01/28 00:04:08;;;;;;;63.47;52.50;;;9.60;1.00;;;;;;5065248;28;20171;-63
2024/01/28 00:06:34;;;;;;;71.32;58.83;;;9.20;1.00;;;;;;5061676;28;20093;-63
2024/01/28 00:09:00;;;;;;;76.85;58.53;;;9.00;1.00;;;;;;5045401;28;20394;-63
2024/01/28 00:11:25;;;;;;;77.82;62.50;;;9.20;1.00;;;;;;5062004;28;20036;-63
2024/01/28 00:13:51;;;;;;;70.72;60.53;;;9.50;1.00;;;;;;5065022;28;20056;-63
2024/01/28 00:16:17;;;;;;;67.10;60.35;;;9.80;1.00;;;;;;5065115;28;20047;-63
2024/01/28 00:18:43;;;;;;;63.33;56.13;;;9.80;1.00;;;;;;5064281;28;20048;-63
2024/01/28 00:21:09;;;;;;;69.28;61.83;;;9.30;1.00;;;;;;5064706;28;20041;-63
2024/01/28 00:23:34;;;;;;;67.28;58.95;;;9.90;1.00;;;;;;5065082;28;20089;-63
2024/01/28 00:26:02;;;;;;;61.70;55.20;;;9.30;1.00;;;;;;5065171;28;20070;-63
2024/01/28 00:28:28;;;;;;;71.70;60.60;;;9.40;1.00;;;;;;5068931;28;20167;-63
2024/01/28 00:30:54;;;;;;;73.65;57.22;;;9.10;1.00;;;;;;5067568;28;20438;-64
2024/01/28 00:33:19;;;;;;;70.20;62.60;;;9.60;1.00;;;;;;5068877;28;20531;-64
2024/01/28 00:35:45;;;;;;;75.00;61.22;;;9.60;1.00;;;;;;5069471;28;20047;-63
2024/01/28 00:38:11;;;;;;;68.93;60.80;;;9.10;99.90;;;;;;5068635;28;20476;-64
2024/01/28 00:40:36;;;;;;;72.80;58.38;;;9.30;99.90;;;;;;5068570;28;20111;-63
2024/01/28 00:43:03;;;;;;;68.70;56.33;;;9.80;99.90;;;;;;5058249;28;20040;-64
2024/01/28 00:45:29;;;;;;;71.22;57.70;;;9.20;99.90;;;;;;5056402;28;20033;-63
2024/01/28 00:47:55;;;;;;;70.63;58.10;;;9.70;99.90;;;;;;5068824;28;20086;-64
2024/01/28 00:50:21;;;;;;;68.97;53.70;;;9.60;99.90;;;;;;5068771;28;20044;-63
2024/01/28 00:52:47;;;;;;;73.90;55.50;;;9.20;99.90;;;;;;5068182;28;20386;-63
2024/01/28 00:55:12;;;;;;;57.00;50.03;;;9.10;99.90;;;;;;5056756;28;20025;-63
2024/01/28 00:57:38;;;;;;;56.35;50.40;;;9.10;99.90;;;;;;5030301;28;20472;-63
2024/01/28 01:00:05;;;;;;;56.72;50.60;;;10.30;99.90;;;;;;5051179;28;20524;-63
2024/01/28 01:02:30;;;;;;;75.95;58.65;;;9.00;99.90;;;;;;5068307;28;20037;-62
2024/01/28 01:04:56;;;;;;;73.18;55.72;;;8.90;99.90;;;;;;5068104;28;20044;-63
2024/01/28 01:07:21;;;;;;;72.28;56.80;;;9.50;99.90;;;;;;5054854;28;20055;-63
2024/01/28 01:09:47;;;;;;;73.22;56.35;;;9.30;99.90;;;;;;5049034;28;20454;-63
2024/01/28 01:12:13;;;;;;;69.95;55.05;;;9.40;99.90;;;;;;5065753;28;20048;-64
2024/01/28 01:14:38;;;;;;;67.07;56.08;;;9.50;99.90;;;;;;5049433;28;20049;-64
2024/01/28 01:17:05;;;;;;;71.10;57.47;;;9.20;99.90;;;;;;5068267;28;20056;-63
2024/01/28 01:19:30;;;;;;;71.80;56.20;;;9.50;99.80;;;;;;5054952;28;20272;-63
2024/01/28 01:21:57;;;;;;;71.13;56.95;;;8.80;99.90;;;;;;5067706;28;20043;-63
2024/01/28 01:24:23;;;;;;;72.65;57.25;;;8.80;99.90;;;;;;5068288;28;20037;-65
2024/01/28 01:26:48;;;;;;;63.72;53.90;;;8.90;80.30;;;;;;5068563;28;20037;-65
2024/01/28 01:29:14;;;;;;;63.75;52.40;;;8.80;63.10;;;;;;5068551;28;20375;-65
2024/01/28 01:31:39;;;;;;;74.38;53.30;;;8.80;50.30;;;;;;5063539;28;20060;-65
2024/01/28 01:34:05;;;;;;;76.30;59.47;;;9.10;11.30;;;;;;5067789;28;20416;-65
2024/01/28 01:36:31;;;;;;;77.93;59.90;;;8.90;1.00;;;;;;5067941;28;20519;-65
2024/01/28 01:38:57;;;;;;;69.72;56.97;;;8.60;1.00;;;;;;5067064;28;20566;-65
2024/01/28 01:41:26;;;;;;;70.78;54.72;;;8.40;1.00;;;;;;5068109;28;20041;-65
2024/01/28 01:43:54;;;;;;;63.67;53.13;;;8.60;1.00;;;;;;5066965;28;20501;-65
2024/01/28 01:46:21;;;;;;;66.70;59.35;;;8.80;68.20;;;;;;5053098;28;20329;-65
2024/01/28 01:48:49;;;;;;;72.50;64.47;;;9.40;99.90;;;;;;5052186;28;20129;-65
2024/01/28 01:51:15;;;;;;;65.38;54.78;;;9.30;99.90;;;;;;5066981;28;20809;-65
2024/01/28 01:53:41;;;;;;;66.22;56.05;;;9.30;60.20;;;;;;5067572;28;20087;-65
2024/01/28 01:56:07;;;;;;;71.70;62.20;;;8.90;99.90;;;;;;5048214;28;20349;-65
2024/01/28 01:58:33;;;;;;;75.85;60.35;;;8.90;93.70;;;;;;5047520;28;20479;-65
2024/01/28 02:00:59;;;;;;;76.05;62.15;;;9.40;1.00;;;;;;5051028;28;20127;-65
2024/01/28 02:03:28;;;;;;;64.78;55.67;;;9.30;1.00;;;;;;5067154;28;20036;-65
2024/01/28 02:05:53;;;;;;;75.63;54.33;;;9.40;1.00;;;;;;5066438;28;20048;-65
2024/01/28 02:08:19;;;;;;;68.75;58.70;;;8.80;1.00;;;;;;5067075;28;20382;-65
2024/01/28 02:10:45;;;;;;;62.78;55.72;;;8.90;1.00;;;;;;5067206;28;20078;-65
2024/01/28 02:13:11;;;;;;;67.95;54.25;;;8.70;99.90;;;;;;5067432;28;20052;-65
2024/01/28 02:15:37;;;;;;;76.00;64.32;;;8.60;99.90;;;;;;5067257;28;20066;-65
2024/01/28 02:18:04;;;;;;;186.30;60.13;;;8.70;99.90;;;;;;5064159;28;20484;-65
2024/01/28 02:20:30;;;;;;;75.13;60.88;;;9.20;1.00;;;;;;5046889;28;20033;-65
2024/01/28 02:22:56;;;;;;;62.20;55.72;;;8.80;1.00;;;;;;5067242;28;20037;-65
2024/01/28 02:25:21;;;;;;;68.13;56.20;;;8.80;1.00;;;;;;5066959;28;20040;-65
2024/01/28 02:27:47;;;;;;;68.35;60.13;;;9.00;99.90;;;;;;5066796;28;20067;-65
2024/01/28 02:30:14;;;;;;;70.15;58.30;;;9.40;99.90;;;;;;5064264;28;20366;-65
2024/01/28 02:32:50;;;;;;;67.95;54.00;;;8.80;99.90;;;;;;5064239;28;20131;-64
2024/01/28 02:35:16;;;;;;;;;;;9.30;99.90;;;;;;5066843;28;20040;-63
2024/01/28 02:37:42;;;;;;;65.20;55.20;;;11.30;99.90;;;;;;5066182;28;19931;-63
2024/01/28 02:40:08;;;;;;;66.57;53.00;;;9.10;99.90;;;;;;5066468;28;20038;-62
2024/01/28 02:42:34;;;;;;;65.93;53.67;;;8.80;99.90;;;;;;5065663;28;20037;-63
2024/01/28 02:45:00;;;;;;;55.67;49.65;;;9.00;36.00;;;;;;5066057;28;20044;-63
2024/01/28 02:47:26;;;;;;;58.67;52.53;;;8.70;1.00;;;;;;5048310;28;20041;-63
2024/01/28 02:49:51;;;;;;;57.13;51.17;;;9.10;1.00;;;;;;5066528;28;20137;-62
2024/01/28 02:52:17;;;;;;;57.28;51.30;;;8.80;99.90;;;;;;5065730;28;20043;-63
2024/01/28 02:54:42;;;;;;;67.93;52.97;;;9.00;99.90;;;;;;5066553;28;20052;-62
2024/01/28 02:57:08;;;;;;;63.38;52.08;;;9.30;1.00;;;;;;5066403;28;20512;-63
2024/01/28 02:59:34;;;;;;;59.10;52.35;;;9.10;1.00;;;;;;5066059;28;20037;-62
2024/01/28 03:01:59;;;;;;;64.60;52.17;;;9.40;99.90;;;;;;5066247;28;20155;-62
2024/01/28 03:04:25;;;;;;;63.83;53.33;;;9.40;99.90;;;;;;5052699;28;20044;-62
2024/01/28 03:06:50;;;;;;;57.05;48.50;;;8.80;99.90;;;;;;5065969;28;20055;-62
2024/01/28 03:09:18;;;;;;;67.53;54.97;;;8.90;99.90;;;;;;5066404;28;20408;-64
2024/01/28 03:11:44;;;;;;;57.53;51.58;;;8.70;21.60;;;;;;5065357;28;20045;-62
2024/01/28 03:14:10;;;;;;;52.35;46.40;;;9.10;1.00;;;;;;5065991;28;20048;-64
2024/01/28 03:16:36;;;;;;;59.47;44.92;;;9.00;1.00;;;;;;5057066;28;20048;-63
2024/01/28 03:19:02;;;;;;;56.72;50.80;;;8.90;99.90;;;;;;5065996;28;20045;-63
2024/01/28 03:21:28;;;;;;;53.60;47.63;;;8.40;99.90;;;;;;5031906;28;20048;-63
2024/01/28 03:23:53;;;;;;;53.28;47.83;;;7.80;99.90;;;;;;5065979;28;20044;-63
2024/01/28 03:26:19;;;;;;;110.45;52.28;;;8.10;99.90;;;;;;5061016;28;20055;-63
2024/01/28 03:28:45;;;;;;;61.50;54.55;;;8.60;1.00;;;;;;5065218;28;20044;-63
2024/01/28 03:31:11;;;;;;;64.95;58.22;;;8.60;1.00;;;;;;5065280;28;20500;-63
2024/01/28 03:33:36;;;;;;;60.97;50.42;;;8.70;1.00;;;;;;5065555;28;20047;-63
2024/01/28 03:36:02;;;;;;;61.10;49.10;;;8.20;1.00;;;;;;5064521;28;20093;-62
2024/01/28 03:38:28;;;;;;;57.30;51.08;;;8.80;1.00;;;;;;5065774;28;20056;-62
2024/01/28 03:40:53;;;;;;;55.33;46.88;;;8.40;1.00;;;;;;5065971;28;20478;-64
2024/01/28 03:43:19;;;;;;;57.30;47.95;;;8.60;99.90;;;;;;5065836;28;20062;-65
2024/01/28 03:45:44;;;;;;;52.08;46.45;;;8.60;99.90;;;;;;5065106;28;20037;-65
2024/01/28 03:48:10;;;;;;;60.45;52.90;;;8.50;99.90;;;;;;5059033;28;20040;-65
2024/01/28 03:50:35;;;;;;;57.45;47.60;;;8.10;99.90;;;;;;5064689;28;20055;-65
2024/01/28 03:53:01;;;;;;;52.13;44.88;;;8.00;99.90;;;;;;5065640;28;20048;-65
2024/01/28 03:55:26;;;;;;;50.58;45.65;;;8.10;1.00;;;;;;5065594;28;20067;-65
2024/01/28 03:57:52;;;;;;;55.25;49.35;;;8.10;1.00;;;;;;5063888;28;20050;-65
2024/01/28 04:00:28;;;;;;;103.20;45.95;;;8.10;94.10;;;;;;5063623;28;20382;-65
2024/01/28 04:02:54;;;;;;;51.00;44.65;;;7.90;99.90;;;;;;5064855;28;20052;-65
2024/01/28 04:05:19;;;;;;;48.75;43.70;;;8.40;99.90;;;;;;5065213;28;20045;-65
2024/01/28 04:07:45;;;;;;;48.72;43.55;;;8.40;99.90;;;;;;5065001;28;20048;-65
2024/01/28 04:10:15;;;;;;;61.67;54.40;;;8.10;99.90;;;;;;5063943;28;20084;-65
2024/01/28 04:12:40;;;;;;;59.35;53.50;;;7.80;99.90;;;;;;5064982;28;20083;-65
2024/01/28 04:15:06;;;;;;;61.15;54.53;;;7.90;99.90;;;;;;5065470;28;20481;-65
2024/01/28 04:17:32;;;;;;;68.63;52.38;;;7.90;99.90;;;;;;5065363;28;20047;-65
2024/01/28 04:19:57;;;;;;;67.85;58.55;;;7.80;99.90;;;;;;5065388;28;20074;-65
2024/01/28 04:22:23;;;;;;;65.97;56.00;;;7.80;99.90;;;;;;5060590;28;20069;-65
2024/01/28 04:24:48;;;;;;;64.18;57.28;;;8.30;99.90;;;;;;5064851;28;20036;-65
2024/01/28 04:27:14;;;;;;;66.90;55.85;;;8.20;99.90;;;;;;5065234;28;20046;-65
2024/01/28 04:29:41;;;;;;;68.22;56.45;;;7.90;99.90;;;;;;5065248;28;20120;-65
2024/01/28 04:32:10;;;;;;;63.90;52.92;;;8.00;94.40;;;;;;5064443;28;20094;-65
2024/01/28 04:34:36;;;;;;;61.33;54.13;;;8.10;45.90;;;;;;5062734;28;20047;-65
2024/01/28 04:37:02;;;;;;;63.35;56.65;;;7.70;40.30;;;;;;5063880;28;20463;-65
2024/01/28 04:39:27;;;;;;;66.55;56.30;;;7.80;66.70;;;;;;5064884;28;20045;-65
2024/01/28 04:41:53;;;;;;;65.60;53.15;;;7.60;99.90;;;;;;5064531;28;20063;-65
2024/01/28 04:44:19;;;;;;;64.82;56.75;;;7.70;99.90;;;;;;5064386;28;20497;-65
2024/01/28 04:46:45;;;;;;;58.72;52.35;;;8.00;95.40;;;;;;5054169;28;20437;-65
2024/01/28 04:49:11;;;;;;;63.60;52.58;;;8.10;99.90;;;;;;5044779;28;20052;-65
2024/01/28 04:51:36;;;;;;;56.58;51.08;;;7.60;99.90;;;;;;5054664;28;20048;-65
2024/01/28 04:54:02;;;;;;;65.40;51.03;;;7.70;99.90;;;;;;5065360;28;20120;-65
2024/01/28 04:56:28;;;;;;;63.35;52.25;;;7.80;99.90;;;;;;5065316;28;20052;-65
2024/01/28 04:58:53;;;;;;;63.90;56.03;;;7.90;99.90;;;;;;5056376;28;20138;-65
2024/01/28 05:01:19;;;;;;;62.90;52.80;;;8.00;99.90;;;;;;5052435;28;20036;-65
2024/01/28 05:03:44;;;;;;;69.00;56.42;;;7.70;99.90;;;;;;5064427;28;20402;-65
2024/01/28 05:06:10;;;;;;;63.42;56.65;;;7.70;99.90;;;;;;5064434;28;20892;-65
2024/01/28 05:08:36;;;;;;;58.15;51.70;;;7.70;99.90;;;;;;5064675;28;20132;-65
2024/01/28 05:11:01;;;;;;;65.28;55.72;;;8.00;99.90;;;;;;5046669;28;20028;-65
2024/01/28 05:13:27;;;;;;;62.25;54.80;;;7.90;99.90;;;;;;5064632;28;20075;-65
2024/01/28 05:15:53;;;;;;;71.32;57.22;;;7.60;95.40;;;;;;5067829;28;20046;-65
2024/01/28 05:18:19;;;;;;;57.38;50.00;;;7.40;99.90;;;;;;5067644;28;20040;-65
2024/01/28 05:20:45;;;;;;;61.42;54.15;;;7.40;6.70;;;;;;5049035;28;20056;-65
2024/01/28 05:23:10;;;;;;;64.88;55.97;;;7.20;1.00;;;;;;5067484;28;20517;-65
2024/01/28 05:25:36;;;;;;;65.90;58.60;;;7.30;41.90;;;;;;5068069;28;20036;-65
2024/01/28 05:28:02;;;;;;;66.15;59.03;;;7.60;99.90;;;;;;5067733;28;20056;-64
2024/01/28 05:30:29;;;;;;;64.63;57.67;;;7.60;99.90;;;;;;5067402;28;20599;-65
2024/01/28 05:32:55;;;;;;;66.20;54.85;;;7.60;99.90;;;;;;5067094;28;20094;-65
2024/01/28 05:35:20;;;;;;;75.95;56.78;;;7.70;99.90;;;;;;5066588;28;20827;-65
2024/01/28 05:37:46;;;;;;;71.32;58.65;;;7.30;99.90;;;;;;5067339;28;20141;-65
2024/01/28 05:40:12;;;;;;;68.32;54.50;;;7.70;99.90;;;;;;5067446;28;20051;-65
2024/01/28 05:42:37;;;;;;;74.18;59.33;;;7.80;99.90;;;;;;5067317;28;20036;-64
2024/01/28 05:45:03;;;;;;;82.00;59.13;;;7.50;99.90;;;;;;5067239;28;20072;-64
2024/01/28 05:47:29;;;;;;;66.15;55.45;;;7.80;99.90;;;;;;5056179;28;20037;-65
2024/01/28 05:49:55;;;;;;;64.55;53.33;;;7.30;99.90;;;;;;5057582;28;20066;-65
2024/01/28 05:52:20;;;;;;;62.55;51.20;;;7.30;99.90;;;;;;5067511;28;20059;-65
2024/01/28 05:54:46;;;;;;;62.40;51.47;;;7.00;99.90;;;;;;5067611;28;20071;-65
2024/01/28 05:57:12;;;;;;;52.20;46.67;;;7.00;99.90;;;;;;5067892;28;20486;-65
2024/01/28 05:59:38;;;;;;;58.65;52.42;;;7.30;99.90;;;;;;5066908;28;20123;-64
2024/01/28 06:02:04;;;;;;;67.10;59.75;;;7.40;1.00;;;;;;5067609;28;20174;-65
2024/01/28 06:04:30;;;;;;;68.22;61.17;;;7.70;1.00;;;;;;5067801;28;20202;-64
2024/01/28 06:06:55;;;;;;;72.63;63.08;;;7.30;1.00;;;;;;5068373;28;20043;-63
2024/01/28 06:09:21;;;;;;;75.50;64.78;;;7.20;1.00;;;;;;5068008;28;20081;-64
2024/01/28 06:11:47;;;;;;;79.25;63.92;;;7.20;1.00;;;;;;5060778;28;20368;-64
2024/01/28 06:14:12;;;;;;;71.80;63.97;;;7.80;1.00;;;;;;5062129;28;20045;-64
2024/01/28 06:16:38;;;;;;;74.40;66.63;;;7.30;1.00;;;;;;5049397;28;20127;-64
2024/01/28 06:19:04;;;;;;;72.55;65.05;;;7.40;1.00;;;;;;5067218;28;20977;-64
2024/01/28 06:21:30;;;;;;;67.65;60.30;;;7.70;1.00;;;;;;5067490;28;20048;-64
2024/01/28 06:23:55;;;;;;;68.15;56.90;;;7.30;1.00;;;;;;5066275;28;20043;-64
2024/01/28 06:26:21;;;;;;;68.70;61.65;;;7.30;1.00;;;;;;5066465;28;20036;-64
2024/01/28 06:28:47;;;;;;;69.82;61.85;;;7.80;99.90;;;;;;5066959;28;20078;-64
2024/01/28 06:31:14;;;;;;;68.03;60.25;;;7.70;99.90;;;;;;5066769;28;20421;-64
2024/01/28 06:33:40;;;;;;;259.95;63.00;;;7.40;1.00;;;;;;5066846;28;20051;-63
2024/01/28 06:36:06;;;;;;;64.05;53.53;;;7.70;1.00;;;;;;5033598;28;20049;-64
2024/01/28 06:38:32;;;;;;;60.90;49.72;;;7.60;1.00;;;;;;5067817;28;20153;-64
2024/01/28 06:40:58;;;;;;;59.80;52.08;;;7.40;1.00;;;;;;5067418;28;20048;-64
2024/01/28 06:43:25;;;;;;;64.63;57.97;;;7.40;1.00;;;;;;5048919;28;20127;-64
2024/01/28 06:45:51;;;;;;;64.88;55.03;;;7.60;1.00;;;;;;5056573;28;20689;-64
2024/01/28 06:48:17;;;;;;;73.28;58.72;;;7.70;99.90;;;;;;5064609;28;20071;-64
2024/01/28 06:50:43;;;;;;;69.88;62.35;;;7.70;1.00;;;;;;5067368;28;20036;-64
2024/01/28 06:53:09;;;;;;;72.57;60.35;;;7.70;1.00;;;;;;5049244;28;20062;-64
2024/01/28 06:55:34;;;;;;;71.97;57.78;;;7.70;1.00;;;;;;5067476;28;20045;-64
2024/01/28 06:58:00;;;;;;;58.83;52.28;;;7.80;99.90;;;;;;5066817;28;20072;-63
2024/01/28 07:00:26;;;;;;;60.70;53.13;;;7.20;99.90;;;;;;5066403;28;20044;-63
2024/01/28 07:02:53;;;;;;;68.45;54.47;;;7.30;99.90;;;;;;5066525;28;20032;-64
2024/01/28 07:05:20;;;;;;;65.63;56.50;;;7.30;99.90;;;;;;5066800;28;20079;-64
2024/01/28 07:07:45;;;;;;;67.97;57.53;;;7.40;99.90;;;;;;5063107;28;20516;-64
2024/01/28 07:10:11;;;;;;;65.78;56.25;;;7.30;99.90;;;;;;5057126;28;20040;-64
2024/01/28 07:12:38;;;;;;;66.50;50.60;;;7.30;99.90;;;;;;5036769;28;20041;-64
2024/01/28 07:15:05;;;;;;;52.17;46.78;;;7.30;99.90;;;;;;5064165;28;20089;-63
2024/01/28 07:17:31;;;;;;;59.80;48.38;;;7.30;99.90;;;;;;5065833;28;20099;-63
2024/01/28 07:19:56;;;;;;;56.47;50.22;;;7.60;99.90;;;;;;5073060;28;20112;-63
2024/01/28 07:22:22;;;;;;;57.75;51.28;;;7.30;99.90;;;;;;5072390;28;20047;-64
2024/01/28 07:24:48;;;;;;;64.80;52.97;;;7.60;99.90;;;;;;5067674;28;20056;-64
2024/01/28 07:27:14;;;;;;;67.40;53.35;;;7.20;62.40;;;;;;5061242;28;20565;-63
2024/01/28 07:29:40;;;;;;;59.67;51.45;;;7.60;45.80;;;;;;5064571;28;20089;-63
2024/01/28 07:32:05;;;;;;;66.13;56.33;;;7.40;54.10;;;;;;5065292;28;20036;-64
2024/01/28 07:34:31;;;;;;;62.55;52.90;;;7.60;43.30;;;;;;5055316;28;20044;-62
2024/01/28 07:36:57;;;;;;;65.00;55.70;;;7.20;5.30;;;;;;5070250;28;20056;-64
2024/01/28 07:39:23;;;;;;;63.90;54.08;;;7.40;1.00;;;;;;5081882;28;20044;-63
2024/01/28 07:41:49;;;;;;;62.97;50.65;;;7.30;1.00;;;;;;5069339;28;20051;-64
2024/01/28 07:44:14;;;;;;;66.03;54.50;;;7.70;1.00;;;;;;5064656;28;20393;-63
2024/01/28 07:46:40;;;;;;;61.40;53.03;;;7.20;1.00;;;;;;5063689;28;20033;-63
2024/01/28 07:49:06;;;;;;;62.90;52.75;;;7.60;1.00;;;;;;5049686;28;20052;-64
2024/01/28 07:51:31;;;;;;;60.88;52.45;;;7.60;1.00;;;;;;5065624;28;20047;-63
2024/01/28 07:53:57;;;;;;;62.47;52.58;;;7.30;1.00;;;;;;5070410;28;20089;-63
2024/01/28 07:56:23;;;;;;;65.05;54.88;;;7.10;1.00;;;;;;5049076;28;20133;-64
2024/01/28 07:58:48;;;;;;;64.00;54.55;;;7.10;1.00;;;;;;5065617;28;20545;-63
2024/01/28 08:01:14;;;;;;;64.07;51.75;;;7.60;99.90;;;;;;5074287;28;20094;-63
2024/01/28 08:03:39;;;;;;;68.75;56.03;;;7.10;1.00;;;;;;5067372;28;20040;-63
2024/01/28 08:06:07;;;;;;;60.53;54.03;;;7.10;1.00;;;;;;5069962;28;20040;-63
2024/01/28 08:08:33;;;;;;;57.30;47.00;;;7.20;1.00;;;;;;5068331;28;20048;-64
2024/01/28 08:10:59;;;;;;;58.67;48.35;;;7.40;99.90;;;;;;5065786;28;20052;-63
2024/01/28 08:13:24;;;;;;;55.40;49.72;;;7.60;99.90;;;;;;5069080;28;20032;-63
2024/01/28 08:15:51;;;;;;;57.40;51.42;;;7.40;99.90;;;;;;5059871;28;20071;-64
2024/01/28 08:18:17;;;;;;;55.58;46.80;;;7.50;99.90;;;;;;5076118;28;20048;-64
2024/01/28 08:20:42;;;;;;;49.50;44.42;;;7.90;99.90;;;;;;5074329;28;20090;-64
2024/01/28 08:23:08;;;;;;;53.10;47.35;;;7.50;99.90;;;;;;5050309;28;20071;-62
2024/01/28 08:25:33;;;;;;;54.00;48.47;;;7.80;99.90;;;;;;5064607;28;20037;-65
2024/01/28 08:27:59;;;;;;;48.55;43.92;;;7.80;99.90;;;;;;5036478;28;20080;-64
2024/01/28 08:30:24;;;;;;;50.00;42.40;;;8.20;99.90;;;;;;5061287;28;20040;-63
2024/01/28 08:32:50;;;;;;;38.65;35.13;;;8.00;99.90;;;;;;5038387;28;20049;-64
2024/01/28 08:35:18;;;;;;;39.95;35.60;;;8.10;75.30;;;;;;5064595;28;20093;-64
2024/01/28 08:37:44;;;;;;;46.33;36.38;;;8.00;11.70;;;;;;5041526;28;20068;-63
2024/01/28 08:40:10;;;;;;;43.78;39.03;;;8.30;1.00;;;;;;5044469;28;20037;-64
2024/01/28 08:42:35;;;;;;;49.65;40.15;;;7.80;1.00;;;;;;5044392;28;20206;-63
2024/01/28 08:45:01;;;;;;;41.40;37.22;;;7.70;1.00;;;;;;5043564;28;20041;-63
2024/01/28 08:47:27;;;;;;;39.35;35.40;;;7.80;1.00;;;;;;5035400;28;20064;-63
2024/01/28 08:49:53;;;;;;;42.42;38.15;;;8.20;1.00;;;;;;5037377;28;20859;-64
2024/01/28 08:52:21;;;;;;;39.05;35.28;;;8.00;1.00;;;;;;5049953;28;20037;-63
2024/01/28 08:54:47;;;;;;;39.53;35.58;;;8.20;1.00;;;;;;5053482;28;20041;-62
2024/01/28 08:57:13;;;;;;;42.00;37.42;;;7.80;1.00;;;;;;5048073;28;20040;-64
2024/01/28 08:59:38;;;;;;;49.33;44.20;;;7.80;1.00;;;;;;5049403;28;20048;-64
2024/01/28 09:02:04;;;;;;;46.55;41.55;;;8.20;1.00;;;;;;5045048;28;20395;-63
2024/01/28 09:04:30;;;;;;;50.38;44.75;;;7.80;1.00;;;;;;5040796;28;20069;-63
2024/01/28 09:06:56;;;;;;;47.35;42.28;;;7.90;1.00;;;;;;5048317;28;20041;-63
2024/01/28 09:09:22;;;;;;;45.67;40.95;;;8.10;1.00;;;;;;5048280;28;20207;-63
2024/01/28 09:11:47;;;;;;;47.38;42.33;;;8.20;1.00;;;;;;5048989;28;20056;-63
2024/01/28 09:14:13;;;;;;;50.00;41.30;;;8.80;99.90;;;;;;5055835;28;20048;-63
2024/01/28 09:16:38;;;;;;;41.40;36.80;;;8.90;99.90;;;;;;5046856;28;20102;-63
2024/01/28 09:19:04;;;;;;;42.60;36.35;;;8.60;99.90;;;;;;5051996;28;20051;-63
2024/01/28 09:21:31;;;;;;;40.35;35.78;;;9.00;99.90;;;;;;5047928;28;20040;-63
2024/01/28 09:23:57;;;;;;;41.60;37.35;;;8.90;99.90;;;;;;5060104;28;20045;-64
2024/01/28 09:26:23;;;;;;;41.97;37.50;;;8.70;96.50;;;;;;5047223;28;20037;-63
2024/01/28 09:28:49;;;;;;;41.13;36.38;;;8.80;71.80;;;;;;5048964;28;20460;-64
2024/01/28 09:31:14;;;;;;;37.80;34.03;;;9.30;28.70;;;;;;5057339;28;20045;-63
2024/01/28 09:33:40;;;;;;;36.85;33.00;;;9.30;1.00;;;;;;5048389;28;20041;-64
2024/01/28 09:36:06;;;;;;;36.95;33.20;;;9.40;1.00;;;;;;5050471;28;20072;-64
2024/01/28 09:38:32;;;;;;;39.35;34.65;;;9.10;1.00;;;;;;5070710;28;20413;-64
2024/01/28 09:41:23;;;;;;;36.55;32.30;;;9.10;1.00;;;;;;5076419;28;20039;-65
2024/01/28 09:43:49;;;;;;;38.50;34.00;;;9.50;1.00;;;;;;5046234;28;20568;-65
2024/01/28 09:46:16;;;;;;;37.10;33.53;;;9.40;1.00;;;;;;5061216;28;20581;-64
2024/01/28 09:48:45;;;;;;;38.63;34.53;;;10.40;1.00;;;;;;5066784;28;20044;-65
2024/01/28 09:51:12;;;;;;;35.10;31.50;;;9.50;1.00;;;;;;5067465;28;20452;-65
2024/01/28 09:53:39;;;;;;;36.03;32.25;;;10.00;1.00;;;;;;5069559;28;20075;-64
2024/01/28 09:56:05;;;;;;;39.17;34.97;;;9.60;1.00;;;;;;5072149;28;20438;-65
2024/01/28 09:58:31;;;;;;;41.95;36.50;;;10.00;1.00;;;;;;5066715;28;20417;-64
2024/01/28 10:00:57;;;;;;;36.03;32.05;;;9.80;1.00;;;;;;5066235;28;20029;-64
2024/01/28 10:03:23;;;;;;;35.80;32.20;;;9.80;1.00;;;;;;5066942;28;20525;-65
2024/01/28 10:05:48;;;;;;;37.83;31.10;;;9.80;1.00;;;;;;5069436;28;20043;-65
2024/01/28 10:08:14;;;;;;;34.67;31.38;;;10.00;99.90;;;;;;5067513;28;20044;-65
2024/01/28 10:10:40;;;;;;;41.20;34.10;;;9.90;99.90;;;;;;5067194;28;20562;-65
2024/01/28 10:13:06;;;;;;;36.13;32.72;;;10.30;99.90;;;;;;5067068;28;20041;-65
2024/01/28 10:15:32;;;;;;;36.45;32.90;;;10.30;99.90;;;;;;5053647;28;20045;-65
2024/01/28 10:17:58;;;;;;;38.75;34.65;;;10.20;99.90;;;;;;5067188;28;20078;-64
2024/01/28 10:20:25;;;;;;;42.42;34.95;;;10.00;99.90;;;;;;5049600;28;20055;-65
2024/01/28 10:22:52;;;;;;;38.78;33.78;;;10.20;99.90;;;;;;5066798;28;20607;-65
2024/01/28 10:25:18;;;;;;;38.70;33.10;;;10.10;99.90;;;;;;5069213;28;20102;-65
2024/01/28 10:27:45;;;;;;;36.13;31.80;;;10.60;99.90;;;;;;5063913;28;20041;-65
2024/01/28 10:30:12;;;;;;;44.60;35.60;;;11.60;99.90;;;;;;5068092;28;20582;-65
2024/01/28 10:32:38;;;;;;;39.70;34.95;;;10.80;99.90;;;;;;5067718;28;20123;-64
2024/01/28 10:35:16;;;;;;;38.15;34.10;;;10.50;99.90;;;;;;5056723;28;20207;-64
2024/01/28 10:37:41;;;;;;;39.58;35.50;;;10.70;99.90;;;;;;5081937;28;20091;-65
2024/01/28 10:40:08;;;;;;;43.05;35.15;;;11.10;99.90;;;;;;5078019;28;20040;-65
2024/01/28 10:42:40;;;;;;;38.55;34.40;;;11.20;99.90;;;;;;5067460;28;20047;-65
2024/01/28 10:45:10;;;;;;;39.60;34.15;;;11.10;99.90;;;;;;5069991;28;20122;-64
2024/01/28 10:47:39;;;;;;;34.38;30.95;;;11.10;99.90;;;;;;5064898;28;20051;-64
2024/01/28 10:50:09;;;;;;;37.88;33.58;;;11.50;99.90;;;;;;5069071;28;20051;-65
2024/01/28 10:52:37;;;;;;;35.08;31.48;;;11.30;99.90;;;;;;5068306;28;20448;-64
2024/01/28 10:55:04;;;;;;;36.83;32.78;;;11.30;99.90;;;;;;5084502;28;20051;-65
2024/01/28 10:57:39;;;;;;;37.95;33.25;;;11.50;99.90;;;;;;5058589;28;20062;-64
2024/01/28 11:00:06;;;;;;;34.08;29.73;;;11.60;99.90;;;;;;5051590;28;20040;-65
2024/01/28 11:02:35;;;;;;;39.60;33.45;;;11.60;99.90;;;;;;5059947;28;20517;-64
2024/01/28 11:05:02;;;;;;;38.60;33.88;;;12.40;99.90;;;;;;5067172;28;20041;-65
2024/01/28 11:07:29;;;;;;;32.92;29.42;;;11.80;99.90;;;;;;5065304;28;20040;-64
2024/01/28 11:09:55;;;;;;;34.20;29.67;;;11.80;99.90;;;;;;5068744;28;20040;-65
2024/01/28 11:12:21;;;;;;;33.15;29.30;;;11.70;99.90;;;;;;5065574;28;20048;-64
2024/01/28 11:14:47;;;;;;;40.25;34.40;;;12.00;99.90;;;;;;5065452;28;20122;-65
2024/01/28 11:17:16;;;;;;;31.75;28.48;;;12.00;99.90;;;;;;5060420;28;20028;-65
2024/01/28 11:19:42;;;;;;;31.13;27.88;;;12.00;99.90;;;;;;5065092;28;20047;-64
2024/01/28 11:22:17;;;;;;;34.80;29.98;;;12.30;99.90;;;;;;5064572;28;20033;-65
2024/01/28 11:24:53;;;;;;;31.27;28.02;;;12.30;99.90;;;;;;5051641;28;20037;-64
2024/01/28 11:27:20;;;;;;;40.13;34.65;;;12.20;99.90;;;;;;5070204;28;20036;-65
2024/01/28 11:29:47;;;;;;;30.85;27.63;;;12.10;99.90;;;;;;5052471;28;20123;-65
2024/01/28 11:32:14;;;;;;;42.10;34.33;;;12.30;99.90;;;;;;5064851;28;20046;-64
2024/01/28 11:34:44;;;;;;;38.28;33.67;;;12.50;99.90;;;;;;5056877;28;20661;-65
2024/01/28 11:37:14;;;;;;;35.10;30.80;;;12.40;99.90;;;;;;5050049;28;20053;-64
2024/01/28 11:39:48;;;;;;;29.90;26.92;;;12.50;99.90;;;;;;5048200;28;20595;-64
2024/01/28 11:42:13;;;;;;;31.60;28.45;;;12.50;99.90;;;;;;5065679;28;20043;-64
2024/01/28 11:44:40;;;;;;;30.50;27.27;;;12.30;99.90;;;;;;5071544;28;20032;-64
2024/01/28 11:47:07;;;;;;;33.83;28.85;;;12.40;95.10;;;;;;5064372;28;20710;-64
2024/01/28 11:49:33;;;;;;;29.92;26.75;;;12.60;80.60;;;;;;5046754;28;20151;-64
2024/01/28 11:51:59;;;;;;;35.92;32.08;;;12.70;80.80;;;;;;5064071;28;20048;-64
2024/01/28 11:54:24;;;;;;;29.38;26.50;;;12.80;93.40;;;;;;5065527;28;20540;-66
2024/01/28 11:56:50;;;;;;;28.80;26.10;;;12.80;73.90;;;;;;5047070;28;20084;-65
2024/01/28 11:59:16;;;;;;;36.55;32.47;;;12.50;80.00;;;;;;5071125;28;20078;-65
2024/01/28 12:01:41;;;;;;;34.88;31.30;;;12.50;77.80;;;;;;5063956;28;20617;-65
2024/01/28 12:04:09;;;;;;;31.92;28.20;;;12.70;72.80;;;;;;5064507;28;20063;-66
2024/01/28 12:06:36;;;;;;;35.03;31.20;;;12.60;70.00;;;;;;5059487;28;20048;-65
2024/01/28 12:09:01;;;;;;;32.88;27.42;;;13.20;57.60;;;;;;5064661;28;20036;-66
2024/01/28 12:11:28;;;;;;;30.75;27.75;;;12.50;55.00;;;;;;5064506;28;20363;-65
2024/01/28 12:13:55;;;;;;;32.75;29.25;;;13.30;48.90;;;;;;5067324;28;20049;-66
2024/01/28 12:16:23;;;;;;;30.00;26.98;;;12.70;39.90;;;;;;5044778;28;20525;-65
2024/01/28 12:18:52;;;;;;;29.83;26.70;;;12.60;37.20;;;;;;5075957;28;20135;-65
2024/01/28 12:21:22;;;;;;;38.03;31.75;;;13.60;35.20;;;;;;5065668;28;20036;-65
2024/01/28 12:23:51;;;;;;;36.08;31.88;;;12.70;38.90;;;;;;5071043;28;20393;-65
2024/01/28 12:26:17;;;;;;;31.10;27.75;;;12.60;44.80;;;;;;5081601;28;20405;-65
2024/01/28 12:28:45;;;;;;;26.70;24.10;;;12.90;32.60;;;;;;5060791;28;20046;-65
2024/01/28 12:31:11;;;;;;;31.73;28.63;;;12.80;22.90;;;;;;5066665;28;20048;-65
2024/01/28 12:33:37;;;;;;;26.30;23.75;;;13.00;19.70;;;;;;5071650;28;20110;-65